createdAt,value
2023-05-18T00:00:58.141Z,7.70
2023-05-18T00:03:32.656Z,8.30
2023-05-18T00:06:13.501Z,8.20
2023-05-18T00:09:04.350Z,7.00
2023-05-18T00:11:41.793Z,6.10
2023-05-18T00:14:18.113Z,6.10
2023-05-18T00:16:58.351Z,6.70
2023-05-18T00:19:34.018Z,6.40
2023-05-18T00:22:08.127Z,6.80
2023-05-18T00:24:56.415Z,6.20
2023-05-18T00:27:32.240Z,6.40
2023-05-18T00:30:06.708Z,6.50
2023-05-18T00:32:42.457Z,6.30
2023-05-18T00:35:29.037Z,6.20
2023-05-18T00:38:02.820Z,6.00
2023-05-18T00:40:33.848Z,7.30
2023-05-18T00:43:07.863Z,7.40
2023-05-18T00:45:43.385Z,6.30
2023-05-18T00:48:16.482Z,7.10
2023-05-18T00:50:47.421Z,6.90
2023-05-18T00:53:26.357Z,7.40
2023-05-18T00:56:01.366Z,8.50
2023-05-18T00:58:34.479Z,8.40
2023-05-18T01:01:17.940Z,9.50
2023-05-18T01:04:08.814Z,7.00
2023-05-18T01:07:17.228Z,6.00
2023-05-18T01:12:45.155Z,6.80
2023-05-18T01:15:40.384Z,7.30
2023-05-18T01:18:57.225Z,6.30
2023-05-18T01:22:04.132Z,6.70
2023-05-18T01:24:56.898Z,6.60
2023-05-18T01:27:29.570Z,6.40
2023-05-18T01:30:00.945Z,6.20
2023-05-18T01:32:43.144Z,5.70
2023-05-18T01:35:22.665Z,4.50
2023-05-18T01:37:53.937Z,5.20
2023-05-18T01:40:26.796Z,5.00
2023-05-18T01:43:15.760Z,5.50
2023-05-18T01:46:00.269Z,5.50
2023-05-18T01:48:43.081Z,6.70
2023-05-18T01:51:20.837Z,6.80
2023-05-18T01:54:08.658Z,6.00
2023-05-18T01:56:47.911Z,5.90
2023-05-18T01:59:26.646Z,5.40
2023-05-18T02:04:53.323Z,4.30
2023-05-18T02:07:46.224Z,6.70
2023-05-18T02:10:31.682Z,6.80
2023-05-18T02:13:12.801Z,6.60
2023-05-18T02:15:56.537Z,8.20
2023-05-18T02:18:42.306Z,8.50
2023-05-18T02:21:26.283Z,7.60
2023-05-18T02:24:01.879Z,8.30
2023-05-18T02:26:41.807Z,7.90
2023-05-18T02:29:12.703Z,7.90
2023-05-18T02:31:46.989Z,8.90
2023-05-18T02:34:22.874Z,7.30
2023-05-18T02:37:08.126Z,7.90
2023-05-18T02:39:41.530Z,7.70
2023-05-18T02:42:14.168Z,7.50
2023-05-18T02:44:53.983Z,8.90
2023-05-18T02:47:48.363Z,8.40
2023-05-18T02:50:28.171Z,8.60
2023-05-18T02:53:16.039Z,7.30
2023-05-18T02:56:08.368Z,8.70
2023-05-18T02:58:53.543Z,8.60
2023-05-18T03:01:37.572Z,8.10
2023-05-18T03:04:19.047Z,6.80
2023-05-18T03:06:57.845Z,8.50
2023-05-18T03:09:36.531Z,9.20
2023-05-18T03:12:12.003Z,7.70
2023-05-18T03:14:53.120Z,7.00
2023-05-18T03:17:30.964Z,8.70
2023-05-18T03:20:07.682Z,7.30
2023-05-18T03:22:46.983Z,8.40
2023-05-18T03:25:29.772Z,9.10
2023-05-18T03:28:11.873Z,13.80
2023-05-18T03:30:46.078Z,17.90
2023-05-18T03:33:17.328Z,18.00
2023-05-18T03:35:52.873Z,14.70
2023-05-18T03:38:25.950Z,14.70
2023-05-18T03:41:11.858Z,11.50
2023-05-18T03:43:53.495Z,10.00
2023-05-18T03:46:29.332Z,9.70
2023-05-18T03:49:11.445Z,8.30
2023-05-18T03:51:49.823Z,8.30
2023-05-18T03:54:22.777Z,9.50
2023-05-18T03:56:58.689Z,7.60
2023-05-18T03:59:43.897Z,9.30
2023-05-18T04:02:19.315Z,8.60
2023-05-18T04:04:55.025Z,9.50
2023-05-18T04:07:35.388Z,8.60
2023-05-18T04:10:12.836Z,9.00
2023-05-18T04:12:50.571Z,10.80
2023-05-18T04:15:28.218Z,8.10
2023-05-18T04:18:14.245Z,8.20
2023-05-18T04:20:52.379Z,9.60
2023-05-18T04:23:30.264Z,10.40
2023-05-18T04:26:11.596Z,10.40
2023-05-18T04:29:06.197Z,10.10
2023-05-18T04:31:54.614Z,9.30
2023-05-18T04:34:26.962Z,9.30
2023-05-18T04:37:05.700Z,9.00
2023-05-18T04:39:45.132Z,9.10
2023-05-18T04:42:36.429Z,9.60
2023-05-18T04:45:20.124Z,11.00
2023-05-18T04:48:05.244Z,8.60
2023-05-18T04:50:45.683Z,10.30
2023-05-18T04:53:28.873Z,8.70
2023-05-18T04:56:11.168Z,9.70
2023-05-18T04:58:52.873Z,10.40
2023-05-18T05:01:32.030Z,9.00
2023-05-18T05:04:18.436Z,10.00
2023-05-18T05:06:55.137Z,8.10
2023-05-18T05:09:34.686Z,8.30
2023-05-18T05:12:12.609Z,8.30
2023-05-18T05:14:49.517Z,7.90
2023-05-18T05:17:25.702Z,7.40
2023-05-18T05:20:02.407Z,7.60
2023-05-18T05:22:34.108Z,9.10
2023-05-18T05:25:06.419Z,8.60
2023-05-18T05:28:01.627Z,8.30
2023-05-18T05:30:33.892Z,8.30
2023-05-18T05:33:09.710Z,7.90
2023-05-18T05:35:51.438Z,7.80
2023-05-18T05:38:33.809Z,6.80
2023-05-18T05:44:00.012Z,7.70
2023-05-18T05:46:35.907Z,5.00
2023-05-18T05:49:24.661Z,5.40
2023-05-18T05:52:09.921Z,4.90
2023-05-18T05:55:09.785Z,4.30
2023-05-18T05:58:11.706Z,4.40
2023-05-18T06:00:44.169Z,4.60
2023-05-18T06:03:35.127Z,3.90
2023-05-18T06:06:30.976Z,3.00
2023-05-18T06:09:05.069Z,3.90
2023-05-18T06:11:42.392Z,3.20
2023-05-18T06:14:15.738Z,3.90
2023-05-18T06:17:07.109Z,3.30
2023-05-18T06:19:46.227Z,4.20
2023-05-18T06:22:19.078Z,3.80
2023-05-18T06:25:28.949Z,3.70
2023-05-18T06:28:18.793Z,2.90
2023-05-18T06:30:54.746Z,3.10
2023-05-18T06:33:41.163Z,3.10
2023-05-18T06:36:14.240Z,2.90
2023-05-18T06:38:59.598Z,3.00
2023-05-18T06:41:31.947Z,2.30
2023-05-18T06:44:07.051Z,2.90
2023-05-18T06:46:45.901Z,3.50
2023-05-18T06:52:02.720Z,2.50
2023-05-18T06:54:33.553Z,3.30
2023-05-18T06:57:07.910Z,2.60
2023-05-18T06:59:40.882Z,3.10
2023-05-18T07:02:15.993Z,2.90
2023-05-18T07:04:47.315Z,2.50
2023-05-18T07:07:23.461Z,3.10
2023-05-18T07:09:58.726Z,2.50
2023-05-18T07:12:34.897Z,3.10
2023-05-18T07:15:22.800Z,2.80
2023-05-18T07:17:57.059Z,2.40
2023-05-18T07:20:29.470Z,2.30
2023-05-18T07:23:10.083Z,2.60
2023-05-18T07:25:49.587Z,2.30
2023-05-18T07:28:23.340Z,2.10
2023-05-18T07:30:59.685Z,1.70
2023-05-18T07:33:31.537Z,2.60
2023-05-18T07:36:10.084Z,4.50
2023-05-18T07:38:41.404Z,2.20
2023-05-18T07:41:12.927Z,2.40
2023-05-18T07:43:44.859Z,2.20
2023-05-18T07:46:17.649Z,2.10
2023-05-18T07:48:51.421Z,2.40
2023-05-18T07:51:21.609Z,2.00
2023-05-18T07:53:55.101Z,1.60
2023-05-18T07:56:26.285Z,1.60
2023-05-18T07:58:56.095Z,1.80
2023-05-18T08:01:30.544Z,1.60
2023-05-18T08:04:04.893Z,1.80
2023-05-18T08:06:37.294Z,2.50
2023-05-18T08:09:17.529Z,1.50
2023-05-18T08:11:47.716Z,2.00
2023-05-18T08:14:18.063Z,2.20
2023-05-18T08:16:59.215Z,1.90
2023-05-18T08:19:42.798Z,1.60
2023-05-18T08:22:13.164Z,1.40
2023-05-18T08:24:53.415Z,9.80
2023-05-18T08:27:38.115Z,4.00
2023-05-18T08:30:19.349Z,1.80
2023-05-18T08:32:49.537Z,1.70
2023-05-18T08:35:19.821Z,1.70
2023-05-18T08:37:51.120Z,1.80
2023-05-18T08:40:37.621Z,2.50
2023-05-18T08:43:23.334Z,1.30
2023-05-18T08:46:31.164Z,1.30
2023-05-18T08:49:09.780Z,1.20
2023-05-18T08:51:42.508Z,1.40
2023-05-18T08:54:16.133Z,3.60
2023-05-18T08:56:47.300Z,1.50
2023-05-18T08:59:23.599Z,1.80
2023-05-18T09:01:55.895Z,1.60
2023-05-18T09:04:29.962Z,1.60
2023-05-18T09:07:02.863Z,1.40
2023-05-18T09:09:45.587Z,1.20
2023-05-18T09:12:21.672Z,1.00
2023-05-18T09:15:00.645Z,1.40
2023-05-18T09:17:32.906Z,1.50
2023-05-18T09:20:06.110Z,1.20
2023-05-18T09:22:44.726Z,1.30
2023-05-18T09:25:19.960Z,1.20
2023-05-18T09:27:54.970Z,1.10
2023-05-18T09:30:40.205Z,1.70
2023-05-18T09:33:22.034Z,1.60
2023-05-18T09:35:52.357Z,1.50
2023-05-18T09:38:25.063Z,2.00
2023-05-18T09:40:54.578Z,1.20
2023-05-18T09:43:24.038Z,4.00
2023-05-18T09:45:53.460Z,1.60
2023-05-18T09:48:25.315Z,1.60
2023-05-18T09:50:55.009Z,1.30
2023-05-18T09:53:24.382Z,4.30
2023-05-18T09:55:53.896Z,1.60
2023-05-18T09:58:35.531Z,2.00
2023-05-18T10:01:08.352Z,1.40
2023-05-18T10:03:41.971Z,1.70
2023-05-18T10:06:20.292Z,4.00
2023-05-18T10:08:53.658Z,2.20
2023-05-18T10:11:24.051Z,5.40
2023-05-18T10:13:58.957Z,2.10
2023-05-18T10:16:29.818Z,2.20
2023-05-18T10:19:12.607Z,2.50
2023-05-18T10:21:44.760Z,1.80
2023-05-18T10:24:28.361Z,1.80
2023-05-18T10:27:01.752Z,1.80
2023-05-18T10:29:38.054Z,1.50
2023-05-18T10:32:24.640Z,1.90
2023-05-18T10:34:58.864Z,1.60
2023-05-18T10:37:31.404Z,1.40
2023-05-18T10:40:05.093Z,2.00
2023-05-18T10:42:38.272Z,2.00
2023-05-18T10:45:14.941Z,1.90
2023-05-18T10:47:49.143Z,1.40
2023-05-18T10:50:21.185Z,4.20
2023-05-18T10:52:59.067Z,1.70
2023-05-18T10:55:32.073Z,2.00
2023-05-18T10:58:16.987Z,2.50
2023-05-18T11:01:03.906Z,1.90
2023-05-18T11:03:34.494Z,1.90
2023-05-18T11:06:15.627Z,1.90
2023-05-18T11:09:04.446Z,1.40
2023-05-18T11:11:58.454Z,1.50
2023-05-18T11:14:36.441Z,1.90
2023-05-18T11:17:25.606Z,1.80
2023-05-18T11:20:18.432Z,1.60
2023-05-18T11:23:06.824Z,1.30
2023-05-18T11:25:39.171Z,1.60
2023-05-18T11:28:13.824Z,1.60
2023-05-18T11:30:50.442Z,1.40
2023-05-18T11:33:36.967Z,1.00
2023-05-18T11:36:18.165Z,1.00
2023-05-18T11:39:07.483Z,1.30
2023-05-18T11:41:42.126Z,0.90
2023-05-18T11:44:13.361Z,1.20
2023-05-18T11:47:00.247Z,1.60
2023-05-18T11:49:37.445Z,1.40
2023-05-18T11:52:16.654Z,1.40
2023-05-18T11:54:49.949Z,1.50
2023-05-18T11:57:45.090Z,1.00
2023-05-18T12:00:32.822Z,1.50
2023-05-18T12:03:06.503Z,1.20
2023-05-18T12:05:40.788Z,1.10
2023-05-18T12:08:12.886Z,1.50
2023-05-18T12:10:52.337Z,1.50
2023-05-18T12:13:28.403Z,1.00
2023-05-18T12:16:02.154Z,1.30
2023-05-18T12:18:38.053Z,1.60
2023-05-18T12:21:09.333Z,1.60
2023-05-18T12:23:41.865Z,1.20
2023-05-18T12:26:15.012Z,0.80
2023-05-18T12:28:58.273Z,1.20
2023-05-18T12:31:28.338Z,1.20
2023-05-18T12:34:03.814Z,1.10
2023-05-18T12:36:33.864Z,1.20
2023-05-18T12:39:03.318Z,1.00
2023-05-18T12:41:33.080Z,0.90
2023-05-18T12:44:02.685Z,0.70
2023-05-18T12:46:32.443Z,1.40
2023-05-18T12:49:02.085Z,1.00
2023-05-18T12:51:38.994Z,1.40
2023-05-18T12:54:08.796Z,1.10
2023-05-18T12:57:02.544Z,1.20
2023-05-18T12:59:32.183Z,1.20
2023-05-18T13:02:01.926Z,1.30
2023-05-18T13:04:38.115Z,1.20
2023-05-18T13:07:12.868Z,1.40
2023-05-18T13:09:47.123Z,1.00
2023-05-18T13:12:17.320Z,1.00
2023-05-18T13:14:50.808Z,1.40
2023-05-18T13:17:25.933Z,1.60
2023-05-18T13:19:58.820Z,1.30
2023-05-18T13:22:29.478Z,1.10
2023-05-18T13:25:02.658Z,1.50
2023-05-18T13:27:38.773Z,1.40
2023-05-18T13:30:09.399Z,1.90
2023-05-18T13:32:39.615Z,1.20
2023-05-18T13:35:10.329Z,1.50
2023-05-18T13:37:41.602Z,1.50
2023-05-18T13:40:11.408Z,1.50
2023-05-18T13:42:41.477Z,1.30
2023-05-18T13:45:15.184Z,1.00
2023-05-18T13:47:52.767Z,1.30
2023-05-18T13:50:30.945Z,1.90
2023-05-18T13:53:07.922Z,1.50
2023-05-18T13:55:49.481Z,1.20
2023-05-18T13:58:29.410Z,2.70
2023-05-18T14:01:06.628Z,1.50
2023-05-18T14:03:37.090Z,1.50
2023-05-18T14:06:10.791Z,1.00
2023-05-18T14:09:04.700Z,1.10
2023-05-18T14:11:38.847Z,1.60
2023-05-18T14:14:12.577Z,1.40
2023-05-18T14:16:53.289Z,2.00
2023-05-18T14:22:57.607Z,1.40
2023-05-18T14:25:38.142Z,1.40
2023-05-18T14:28:12.254Z,1.20
2023-05-18T14:30:46.121Z,1.50
2023-05-18T14:33:47.448Z,1.30
2023-05-18T14:36:21.829Z,1.30
2023-05-18T14:38:54.930Z,1.50
2023-05-18T14:42:13.993Z,1.20
2023-05-18T14:44:53.276Z,1.20
2023-05-18T14:47:40.937Z,1.20
2023-05-18T14:50:21.222Z,1.50
2023-05-18T14:53:06.072Z,0.90
2023-05-18T14:56:29.846Z,0.90
2023-05-18T14:59:27.073Z,1.50
2023-05-18T15:01:59.603Z,2.20
2023-05-18T15:04:33.075Z,1.40
2023-05-18T15:07:06.276Z,1.30
2023-05-18T15:09:41.528Z,1.70
2023-05-18T15:12:21.572Z,1.40
2023-05-18T15:14:56.999Z,1.70
2023-05-18T15:17:27.387Z,1.30
2023-05-18T15:19:58.655Z,2.00
2023-05-18T15:22:29.595Z,1.60
2023-05-18T15:25:07.698Z,1.40
2023-05-18T15:27:40.422Z,1.30
2023-05-18T15:30:13.483Z,1.10
2023-05-18T15:32:53.766Z,1.20
2023-05-18T15:35:39.215Z,2.00
2023-05-18T15:38:14.776Z,1.50
2023-05-18T15:41:14.643Z,1.50
2023-05-18T15:43:57.933Z,1.20
2023-05-18T15:46:36.905Z,1.80
2023-05-18T15:49:08.590Z,1.70
2023-05-18T15:51:38.700Z,1.20
2023-05-18T15:54:09.429Z,1.90
2023-05-18T15:56:40.241Z,1.40
2023-05-18T15:59:14.979Z,1.40
2023-05-18T16:02:00.141Z,1.30
2023-05-18T16:04:47.073Z,1.30
2023-05-18T16:07:45.940Z,1.50
2023-05-18T16:10:47.268Z,1.10
2023-05-18T16:13:27.616Z,1.10
2023-05-18T16:16:01.112Z,1.30
2023-05-18T16:18:33.534Z,1.40
2023-05-18T16:21:20.032Z,1.40
2023-05-18T16:23:57.676Z,1.40
2023-05-18T16:26:39.771Z,1.50
2023-05-18T16:29:10.818Z,1.70
2023-05-18T16:31:55.518Z,1.40
2023-05-18T16:34:31.877Z,1.30
2023-05-18T16:37:11.072Z,2.00
2023-05-18T16:39:49.638Z,1.60
2023-05-18T16:42:36.695Z,1.40
2023-05-18T16:47:45.349Z,1.50
2023-05-18T16:50:20.128Z,2.40
2023-05-18T16:53:40.326Z,2.10
2023-05-18T16:56:45.853Z,2.10
2023-05-18T16:59:28.100Z,2.40
2023-05-18T17:02:01.878Z,1.80
2023-05-18T17:04:41.903Z,1.70
2023-05-18T17:07:21.190Z,1.20
2023-05-18T17:10:00.409Z,1.80
2023-05-18T17:12:37.201Z,1.60
2023-05-18T17:15:57.316Z,3.90
2023-05-18T17:18:31.985Z,3.30
2023-05-18T17:21:08.691Z,3.20
2023-05-18T17:23:53.559Z,3.40
2023-05-18T17:27:17.221Z,2.40
2023-05-18T17:30:04.536Z,2.60
2023-05-18T17:32:39.320Z,2.90
2023-05-18T17:35:26.387Z,2.60
2023-05-18T17:38:18.940Z,2.30
2023-05-18T17:40:56.933Z,2.70
2023-05-18T17:43:33.516Z,3.20
2023-05-18T17:46:13.035Z,3.20
2023-05-18T17:48:50.445Z,2.80
2023-05-18T17:51:32.020Z,3.20
2023-05-18T17:54:07.503Z,2.80
2023-05-18T17:57:00.826Z,2.90
2023-05-18T17:59:50.358Z,3.30
2023-05-18T18:02:44.899Z,3.10
2023-05-18T18:05:50.961Z,3.20
2023-05-18T18:08:35.602Z,2.60
2023-05-18T18:11:10.541Z,2.60
2023-05-18T18:14:41.917Z,4.30
2023-05-18T18:18:03.929Z,4.20
2023-05-18T18:24:16.384Z,6.10
2023-05-18T18:33:13.253Z,8.50
2023-05-18T18:35:11.470Z,7.10
2023-05-18T18:38:02.499Z,13.40
2023-05-18T18:40:43.503Z,12.30
2023-05-18T18:43:27.103Z,7.10
2023-05-18T18:46:30.934Z,8.60
2023-05-18T18:52:03.021Z,15.00
2023-05-18T18:55:04.654Z,28.30
2023-05-18T18:57:42.192Z,27.20
2023-05-18T19:00:45.674Z,21.10
2023-05-18T19:03:53.353Z,15.10
2023-05-18T19:06:41.125Z,13.60
2023-05-18T19:09:33.341Z,10.30
2023-05-18T19:12:31.596Z,11.80
2023-05-18T19:15:27.346Z,11.90
2023-05-18T19:18:04.306Z,12.40
2023-05-18T19:20:54.128Z,9.30
2023-05-18T19:23:30.269Z,9.60
2023-05-18T19:26:02.556Z,8.60
2023-05-18T19:28:38.769Z,8.50
2023-05-18T19:31:29.028Z,14.30
2023-05-18T19:34:18.764Z,10.30
2023-05-18T19:36:54.880Z,11.20
2023-05-18T19:39:36.911Z,13.50
2023-05-18T19:45:36.934Z,16.90
2023-05-18T19:48:12.238Z,20.40
2023-05-18T19:50:50.498Z,21.30
2023-05-18T19:53:37.310Z,21.90
2023-05-18T19:56:15.440Z,21.20
2023-05-18T19:58:58.993Z,19.90
2023-05-18T20:14:05.071Z,19.70
2023-05-18T20:16:42.615Z,19.40
2023-05-18T20:19:20.046Z,18.60
2023-05-18T20:21:50.714Z,19.60
2023-05-18T20:24:28.388Z,18.50
2023-05-18T20:27:08.665Z,16.70
2023-05-18T20:29:59.407Z,16.30
2023-05-18T20:32:30.815Z,15.10
2023-05-18T20:35:03.989Z,11.10
2023-05-18T20:40:09.687Z,14.10
2023-05-18T20:42:40.965Z,13.70
2023-05-18T20:45:18.115Z,13.50
2023-05-18T20:48:02.092Z,13.50
2023-05-18T20:50:33.909Z,17.60
2023-05-18T20:53:13.056Z,20.90
2023-05-18T20:55:50.520Z,20.70
2023-05-18T20:58:21.943Z,21.20
2023-05-18T21:00:56.695Z,20.50
2023-05-18T21:03:39.150Z,19.30
2023-05-18T21:06:13.254Z,20.90
2023-05-18T21:11:16.555Z,23.10
2023-05-18T21:13:49.287Z,22.90
2023-05-18T21:16:19.607Z,19.50
2023-05-18T21:18:50.079Z,22.70
2023-05-18T21:21:21.188Z,21.30
2023-05-18T21:23:51.385Z,20.60
2023-05-18T21:26:22.259Z,22.50
2023-05-18T21:28:52.721Z,22.70
2023-05-18T21:31:22.958Z,20.70
2023-05-18T21:33:53.269Z,21.70
2023-05-18T21:36:35.885Z,24.80
2023-05-18T21:39:09.806Z,29.30
2023-05-18T21:41:40.816Z,25.60
2023-05-18T21:46:41.714Z,25.40
2023-05-18T21:49:13.572Z,26.70
2023-05-18T21:51:43.998Z,27.90
2023-05-18T21:54:14.258Z,31.90
2023-05-18T21:56:44.724Z,30.40
2023-05-18T21:59:15.341Z,31.80
2023-05-18T22:01:45.593Z,33.50
2023-05-18T22:04:15.951Z,34.90
2023-05-18T22:06:47.735Z,37.10
2023-05-18T22:09:18.187Z,41.00
2023-05-18T22:11:48.137Z,41.10
2023-05-18T22:14:23.339Z,43.10
2023-05-18T22:16:53.849Z,39.10
2023-05-18T22:19:25.246Z,38.00
2023-05-18T22:21:55.940Z,34.10
2023-05-18T22:24:26.187Z,34.80
2023-05-18T22:26:56.827Z,33.30
2023-05-18T22:29:29.730Z,32.50
2023-05-18T22:32:00.281Z,31.80
2023-05-18T22:34:33.978Z,29.40
2023-05-18T22:37:13.741Z,27.90
2023-05-18T22:39:44.887Z,29.50
2023-05-18T22:42:15.283Z,29.50
2023-05-18T22:44:48.901Z,26.20
2023-05-18T22:47:21.940Z,27.70
2023-05-18T22:49:53.227Z,26.50
2023-05-18T22:52:35.642Z,28.50
2023-05-18T22:55:16.880Z,26.20
2023-05-18T22:57:47.703Z,27.60
2023-05-18T23:00:18.508Z,25.80
2023-05-18T23:02:48.444Z,26.70
2023-05-18T23:05:22.203Z,26.40
2023-05-18T23:07:52.677Z,27.00
2023-05-18T23:10:26.402Z,26.40
2023-05-18T23:13:02.346Z,24.50
2023-05-18T23:15:33.634Z,25.10
2023-05-18T23:18:09.615Z,25.80
2023-05-18T23:20:40.101Z,22.20
2023-05-18T23:23:15.018Z,20.60
2023-05-18T23:25:50.924Z,22.50
2023-05-18T23:28:21.474Z,22.60
2023-05-18T23:30:51.849Z,19.50
2023-05-18T23:33:22.176Z,18.30
2023-05-18T23:35:56.021Z,18.90
2023-05-18T23:38:35.232Z,18.60
2023-05-18T23:41:08.566Z,19.50
2023-05-18T23:43:40.022Z,19.20
2023-05-18T23:48:50.777Z,17.80
2023-05-18T23:51:30.275Z,17.10
2023-05-18T23:54:01.528Z,16.90
2023-05-18T23:56:33.689Z,16.50
2023-05-18T23:59:04.507Z,15.70
